Time;durP1;ratioP1;P1;durP2;ratioP2;P2;SDS_P1;SDS_P2;PMS_P1;PMS_P2;Temp;Humidity;BMP_temperature;BMP_pressure;BME280_temperature;BME280_humidity;BME280_pressure;Samples;Min_cycle;Max_cycle;Signal;HPM_P1;HPM_P2
2023/07/22 00:02:06;;;;;;;1999.90;999.90;;;13.90;99.90;;;;;;4807127;29;20054;-69
2023/07/22 00:04:31;;;;;;;1999.90;999.90;;;13.90;99.90;;;;;;4808005;29;20484;-69
2023/07/22 00:06:57;;;;;;;1999.90;999.90;;;13.80;99.90;;;;;;4822079;29;20090;-71
2023/07/22 00:09:24;;;;;;;1999.90;999.90;;;13.80;99.90;;;;;;4806879;29;20484;-71
2023/07/22 00:11:50;;;;;;;1999.90;999.90;;;13.70;99.90;;;;;;4806957;29;20137;-71
2023/07/22 00:14:16;;;;;;;1999.90;999.90;;;13.80;99.90;;;;;;4807900;29;20058;-71
2023/07/22 00:16:42;;;;;;;1999.90;999.90;;;13.80;99.90;;;;;;4807677;29;20047;-72
2023/07/22 00:19:08;;;;;;;1999.90;999.90;;;13.80;99.90;;;;;;4806511;29;20069;-70
2023/07/22 00:21:34;;;;;;;1999.90;999.90;;;13.70;99.90;;;;;;4806581;29;20129;-72
2023/07/22 00:24:00;;;;;;;1999.90;999.90;;;13.70;99.90;;;;;;4806875;29;20443;-72
2023/07/22 00:26:26;;;;;;;1999.90;999.90;;;13.80;99.90;;;;;;4807685;29;20105;-71
2023/07/22 00:28:51;;;;;;;1999.90;999.90;;;13.80;99.90;;;;;;4807304;29;20094;-72
2023/07/22 00:31:17;;;;;;;1999.90;999.90;;;13.80;99.90;;;;;;4807872;29;20094;-72
2023/07/22 00:33:43;;;;;;;1999.90;999.90;;;13.80;99.90;;;;;;4807501;29;20070;-72
2023/07/22 00:36:08;;;;;;;1999.90;999.90;;;13.80;99.90;;;;;;4821714;29;20054;-71
2023/07/22 00:38:34;;;;;;;1999.90;999.90;;;13.70;99.90;;;;;;4808240;29;20154;-71
2023/07/22 00:41:00;;;;;;;1999.90;999.90;;;13.70;99.90;;;;;;4791439;29;20488;-71
2023/07/22 00:43:26;;;;;;;1999.90;999.90;;;13.70;99.90;;;;;;4807241;29;20476;-71
2023/07/22 00:45:52;;;;;;;1999.90;999.90;;;13.70;99.90;;;;;;4807357;29;20047;-71
2023/07/22 00:48:19;;;;;;;1999.90;999.90;;;13.60;99.90;;;;;;4807298;29;20053;-71
2023/07/22 00:50:44;;;;;;;1999.90;999.90;;;13.60;99.90;;;;;;4821787;29;20427;-71
2023/07/22 00:53:10;;;;;;;1999.90;999.90;;;13.60;99.90;;;;;;4806256;29;20053;-71
2023/07/22 00:55:40;;;;;;;1999.90;999.90;;;13.60;99.90;;;;;;4807145;29;20051;-71
2023/07/22 00:58:06;;;;;;;1999.90;999.90;;;13.50;99.90;;;;;;4807106;29;20046;-71
2023/07/22 01:00:32;;;;;;;1999.90;999.90;;;13.50;99.90;;;;;;4807023;29;20062;-71
2023/07/22 01:02:58;;;;;;;1999.90;999.90;;;13.50;99.90;;;;;;4806919;29;20047;-71
2023/07/22 01:05:26;;;;;;;1999.90;999.90;;;13.40;99.90;;;;;;4807039;29;20050;-71
2023/07/22 01:07:52;;;;;;;1999.90;999.90;;;13.40;99.90;;;;;;4807471;29;20062;-70
2023/07/22 01:10:18;;;;;;;1999.90;999.90;;;13.40;99.90;;;;;;4806990;29;20055;-70
2023/07/22 01:12:44;;;;;;;1999.90;999.90;;;13.40;99.90;;;;;;4806681;29;20377;-71
2023/07/22 01:15:10;;;;;;;1999.90;999.90;;;13.40;99.90;;;;;;4805661;29;20047;-71
2023/07/22 01:17:38;;;;;;;1999.90;999.90;;;13.40;99.90;;;;;;4807635;29;20082;-71
2023/07/22 01:20:04;;;;;;;1999.90;999.90;;;13.40;99.90;;;;;;4806877;29;20050;-71
2023/07/22 01:22:32;;;;;;;1999.90;999.90;;;13.40;99.90;;;;;;4805536;29;20109;-71
2023/07/22 01:24:58;;;;;;;1999.90;999.90;;;13.40;99.90;;;;;;4805873;29;20046;-71
2023/07/22 01:27:24;;;;;;;1999.90;999.90;;;13.40;99.90;;;;;;4806742;29;20125;-71
2023/07/22 01:29:51;;;;;;;1999.90;999.90;;;13.40;99.90;;;;;;4806683;29;20051;-71
2023/07/22 01:32:17;;;;;;;1999.90;999.90;;;13.40;99.90;;;;;;4805912;29;20047;-71
2023/07/22 01:34:43;;;;;;;1999.90;999.90;;;13.40;99.90;;;;;;4807105;29;20051;-71
2023/07/22 01:37:12;;;;;;;1999.90;999.90;;;13.40;99.90;;;;;;4806566;29;20051;-71
2023/07/22 01:39:38;;;;;;;1999.90;999.90;;;13.40;99.90;;;;;;4806511;29;20051;-72
2023/07/22 01:42:04;;;;;;;1999.90;999.90;;;13.40;99.90;;;;;;4806523;29;20488;-71
2023/07/22 01:44:30;;;;;;;1999.90;999.90;;;13.40;99.90;;;;;;4804983;29;20147;-71
2023/07/22 01:46:56;;;;;;;1999.90;999.90;;;13.40;99.90;;;;;;4806127;29;20522;-71
2023/07/22 01:49:22;;;;;;;1999.90;999.90;;;13.40;99.90;;;;;;4805344;29;20094;-71
2023/07/22 01:51:48;;;;;;;1999.90;999.90;;;13.50;99.90;;;;;;4806974;29;20055;-71
2023/07/22 01:54:14;;;;;;;1999.90;999.90;;;13.50;99.90;;;;;;4805884;29;20062;-72
2023/07/22 01:56:39;;;;;;;1999.90;999.90;;;13.50;99.90;;;;;;4806696;29;20065;-71
2023/07/22 01:59:05;;;;;;;1999.90;999.90;;;13.50;99.90;;;;;;4820641;29;20061;-70
2023/07/22 02:01:32;;;;;;;1999.90;999.90;;;13.50;99.90;;;;;;4807292;29;20145;-71
2023/07/22 02:03:58;;;;;;;1999.90;999.90;;;13.50;99.90;;;;;;4808675;29;20427;-70
2023/07/22 02:06:24;;;;;;;1999.90;999.90;;;13.50;99.90;;;;;;4809095;29;20116;-71
2023/07/22 02:08:50;;;;;;;1999.90;999.90;;;13.50;99.90;;;;;;4809115;29;20169;-70
2023/07/22 02:11:17;;;;;;;1999.90;999.90;;;13.50;99.90;;;;;;4809995;29;20092;-71
2023/07/22 02:13:43;;;;;;;1999.90;999.90;;;13.40;99.90;;;;;;4809947;29;20051;-70
2023/07/22 02:16:11;;;;;;;1999.90;999.90;;;13.40;99.90;;;;;;4823774;29;20104;-71
2023/07/22 02:18:37;;;;;;;1999.90;999.90;;;13.40;99.90;;;;;;4809663;29;20115;-71
2023/07/22 02:21:03;;;;;;;1999.90;999.90;;;13.40;99.90;;;;;;4809843;29;20047;-70
2023/07/22 02:23:28;;;;;;;1999.90;999.90;;;13.40;99.90;;;;;;4809811;29;20115;-71
2023/07/22 02:25:54;;;;;;;1999.90;999.90;;;13.30;99.90;;;;;;4809736;29;20054;-71
2023/07/22 02:28:22;;;;;;;1999.90;999.90;;;13.30;99.90;;;;;;4809657;29;20540;-71
2023/07/22 02:30:52;;;;;;;1999.90;999.90;;;13.30;99.90;;;;;;4809649;29;20062;-71
2023/07/22 02:33:19;;;;;;;1999.90;999.90;;;13.30;99.90;;;;;;4808452;29;20047;-70
2023/07/22 02:35:45;;;;;;;1999.90;999.90;;;13.20;99.90;;;;;;4809882;29;20086;-71
2023/07/22 02:38:11;;;;;;;1999.90;999.90;;;13.20;99.90;;;;;;4823371;29;20050;-71
2023/07/22 02:40:37;;;;;;;1999.90;999.90;;;13.10;99.90;;;;;;4808266;29;20514;-70
2023/07/22 02:43:03;;;;;;;1999.90;999.90;;;13.10;99.90;;;;;;4809895;29;20055;-70
2023/07/22 02:45:29;;;;;;;1999.90;999.90;;;13.10;99.90;;;;;;4808488;29;20070;-71
2023/07/22 02:47:55;;;;;;;1999.90;999.90;;;13.10;99.90;;;;;;4809360;29;20090;-71
2023/07/22 02:50:21;;;;;;;1999.90;999.90;;;13.00;99.90;;;;;;4808160;29;20061;-71
2023/07/22 02:52:47;;;;;;;1999.90;999.90;;;13.00;99.90;;;;;;4809217;29;20050;-71
2023/07/22 02:55:20;;;;;;;1999.90;999.90;;;13.00;99.90;;;;;;4823295;29;20142;-71
2023/07/22 02:57:46;;;;;;;;;;;13.00;99.90;;;;;;4810272;29;20149;-70
2023/07/22 03:00:13;;;;;;;1999.90;999.90;;;12.90;99.90;;;;;;4809111;29;19982;-71
2023/07/22 03:02:40;;;;;;;1999.90;999.90;;;12.90;99.90;;;;;;4809017;29;20061;-71
2023/07/22 03:05:10;;;;;;;1999.90;999.90;;;12.90;99.90;;;;;;4809368;29;20094;-71
2023/07/22 03:07:39;;;;;;;1999.90;999.90;;;12.90;99.90;;;;;;4809041;29;20047;-71
2023/07/22 03:10:06;;;;;;;1999.90;999.90;;;12.80;99.90;;;;;;4808847;29;20186;-70
2023/07/22 03:12:32;;;;;;;1999.90;999.90;;;12.70;99.90;;;;;;4822548;29;20569;-71
2023/07/22 03:14:58;;;;;;;1999.90;999.90;;;12.70;99.90;;;;;;4807850;29;20042;-71
2023/07/22 03:17:24;;;;;;;1999.90;999.90;;;12.70;99.90;;;;;;4807776;29;20047;-71
2023/07/22 03:19:50;;;;;;;1999.90;999.90;;;12.70;99.90;;;;;;4809075;29;20116;-71
2023/07/22 03:22:17;;;;;;;1999.90;999.90;;;12.70;99.90;;;;;;4809626;29;20047;-72
2023/07/22 03:24:44;;;;;;;1999.90;999.90;;;12.70;99.90;;;;;;4807742;29;20469;-71
2023/07/22 03:27:10;;;;;;;1999.90;999.90;;;12.70;99.90;;;;;;4809418;29;20047;-71
2023/07/22 03:29:36;;;;;;;1999.90;999.90;;;12.70;99.90;;;;;;4808618;29;20054;-71
2023/07/22 03:32:02;;;;;;;1999.90;999.90;;;12.70;99.90;;;;;;4808607;29;20115;-71
2023/07/22 03:34:28;;;;;;;1999.90;999.90;;;12.70;99.90;;;;;;4807698;29;20060;-71
2023/07/22 03:36:53;;;;;;;1999.90;999.90;;;12.60;99.90;;;;;;4807547;29;20065;-71
2023/07/22 03:39:20;;;;;;;1999.90;999.90;;;12.60;99.90;;;;;;4808773;29;20050;-71
2023/07/22 03:41:46;;;;;;;1999.90;999.90;;;12.60;99.90;;;;;;4807521;29;20416;-71
2023/07/22 03:44:12;;;;;;;1999.90;999.90;;;12.70;99.90;;;;;;4808888;29;20047;-71
2023/07/22 03:46:38;;;;;;;1999.90;999.90;;;12.60;99.90;;;;;;4808633;29;20130;-71
2023/07/22 03:49:04;;;;;;;1999.90;999.90;;;12.60;99.90;;;;;;4807398;29;20184;-71
2023/07/22 03:51:30;;;;;;;1999.90;999.90;;;12.60;99.90;;;;;;4808318;29;20134;-71
2023/07/22 03:53:55;;;;;;;1999.90;999.90;;;12.60;99.90;;;;;;4808236;29;20141;-71
2023/07/22 03:56:23;;;;;;;1999.90;999.90;;;12.60;99.90;;;;;;4808426;29;20043;-71
2023/07/22 03:58:50;;;;;;;1999.90;999.90;;;12.60;99.90;;;;;;4808157;29;20051;-71
2023/07/22 04:01:15;;;;;;;1999.90;999.90;;;12.60;99.90;;;;;;4808105;29;20066;-71
2023/07/22 04:03:41;;;;;;;1999.90;999.90;;;12.60;99.90;;;;;;4808054;29;20396;-71
2023/07/22 04:06:07;;;;;;;1999.90;999.90;;;12.60;99.90;;;;;;4808067;29;20111;-71
2023/07/22 04:08:32;;;;;;;1999.90;999.90;;;12.70;99.90;;;;;;4808054;29;20058;-71
2023/07/22 04:10:58;;;;;;;1999.90;999.90;;;12.70;99.90;;;;;;4806772;29;20082;-71
2023/07/22 04:13:25;;;;;;;1999.90;999.90;;;12.70;99.90;;;;;;4807874;29;20049;-71
2023/07/22 04:15:51;;;;;;;1999.90;999.90;;;12.70;99.90;;;;;;4806764;29;20187;-72
2023/07/22 04:18:18;;;;;;;1999.90;999.90;;;12.80;99.90;;;;;;4807861;29;20130;-71
2023/07/22 04:20:44;;;;;;;1999.90;999.90;;;12.70;99.90;;;;;;4807519;29;20488;-71
2023/07/22 04:23:10;;;;;;;1999.90;999.90;;;12.80;99.90;;;;;;4806611;29;20507;-71
2023/07/22 04:25:40;;;;;;;1999.90;999.90;;;12.80;99.90;;;;;;4808193;29;20049;-71
2023/07/22 04:28:07;;;;;;;1999.90;999.90;;;12.80;99.90;;;;;;4808147;29;20047;-71
2023/07/22 04:30:32;;;;;;;1999.90;999.90;;;12.80;99.90;;;;;;4807627;29;20090;-71
2023/07/22 04:32:58;;;;;;;1999.90;999.90;;;12.80;99.90;;;;;;4806634;29;20090;-71
2023/07/22 04:35:24;;;;;;;1999.90;999.90;;;12.80;99.90;;;;;;4808021;29;20482;-71
2023/07/22 04:37:49;;;;;;;1999.90;999.90;;;12.80;99.90;;;;;;4821163;29;20124;-71
2023/07/22 04:40:16;;;;;;;1999.90;999.90;;;12.80;99.90;;;;;;4808236;29;20061;-71
2023/07/22 04:42:43;;;;;;;1999.90;999.90;;;12.80;99.90;;;;;;4807100;29;20531;-71
2023/07/22 04:45:10;;;;;;;1999.90;999.90;;;12.90;99.90;;;;;;4807366;29;20408;-71
2023/07/22 04:47:39;;;;;;;1999.90;999.90;;;12.90;99.90;;;;;;4806110;29;20090;-71
2023/07/22 04:50:09;;;;;;;1999.90;999.90;;;12.90;99.90;;;;;;4821881;29;20094;-71
2023/07/22 04:52:38;;;;;;;1999.90;999.90;;;12.90;99.90;;;;;;4806936;29;20076;-72
2023/07/22 04:55:08;;;;;;;1999.90;999.90;;;13.00;99.90;;;;;;4808021;29;20399;-71
2023/07/22 04:57:40;;;;;;;1999.90;999.90;;;13.10;99.90;;;;;;4806302;29;20445;-72
2023/07/22 05:00:09;;;;;;;1999.90;999.90;;;13.10;99.90;;;;;;4807091;29;20125;-70
2023/07/22 05:02:35;;;;;;;1999.90;999.90;;;13.20;99.90;;;;;;4806160;29;20557;-71
2023/07/22 05:05:01;;;;;;;1999.90;999.90;;;13.20;99.90;;;;;;4821027;29;20059;-71
2023/07/22 05:07:26;;;;;;;1999.90;999.90;;;13.30;99.90;;;;;;4806831;29;20107;-71
2023/07/22 05:09:53;;;;;;;1999.90;999.90;;;13.30;99.90;;;;;;4821503;29;20051;-71
2023/07/22 05:12:19;;;;;;;1999.90;999.90;;;13.30;99.90;;;;;;4820997;29;20054;-71
2023/07/22 05:14:48;;;;;;;1999.90;999.90;;;13.40;99.90;;;;;;4820947;29;20050;-71
2023/07/22 05:17:14;;;;;;;1999.90;999.90;;;13.40;99.90;;;;;;4805634;29;20078;-71
2023/07/22 05:19:40;;;;;;;1999.90;999.90;;;13.40;99.90;;;;;;4806822;29;20055;-71
2023/07/22 05:22:06;;;;;;;1999.90;999.90;;;13.50;99.90;;;;;;4806759;29;20054;-71
2023/07/22 05:24:32;;;;;;;1999.90;999.90;;;13.50;99.90;;;;;;4806630;29;20061;-70
2023/07/22 05:26:58;;;;;;;1999.90;999.90;;;13.50;99.90;;;;;;4807220;29;20488;-71
2023/07/22 05:29:24;;;;;;;1999.90;999.90;;;13.60;99.90;;;;;;4820955;29;20046;-70
2023/07/22 05:31:49;;;;;;;1999.90;999.90;;;13.60;99.90;;;;;;4806658;29;20053;-70
2023/07/22 05:34:15;;;;;;;1999.90;999.90;;;13.60;99.90;;;;;;4806595;29;20049;-70
2023/07/22 05:36:41;;;;;;;1999.90;999.90;;;13.70;99.90;;;;;;4806603;29;20054;-70
2023/07/22 05:39:06;;;;;;;1999.90;999.90;;;13.80;99.90;;;;;;4820331;29;20479;-70
2023/07/22 05:41:36;;;;;;;1999.90;999.90;;;13.80;99.90;;;;;;4807083;29;20058;-70
2023/07/22 05:44:02;;;;;;;1999.90;999.90;;;13.80;99.90;;;;;;4806424;29;20053;-71
2023/07/22 05:46:27;;;;;;;1999.90;999.90;;;13.90;99.90;;;;;;4775977;29;20055;-70
2023/07/22 05:48:53;;;;;;;1999.90;999.90;;;13.90;99.90;;;;;;4790244;29;20062;-70
2023/07/22 05:51:19;;;;;;;1999.90;999.90;;;13.90;99.90;;;;;;4775673;29;20051;-70
2023/07/22 05:53:44;;;;;;;1999.90;999.90;;;14.00;99.90;;;;;;4806404;29;20419;-70
2023/07/22 05:56:10;;;;;;;1999.90;999.90;;;14.00;99.90;;;;;;4806457;29;20058;-70
2023/07/22 05:58:36;;;;;;;1999.90;999.90;;;14.10;99.90;;;;;;4806398;29;20422;-71
2023/07/22 06:01:02;;;;;;;1999.90;999.90;;;14.10;99.90;;;;;;4820252;29;20058;-70
2023/07/22 06:03:28;;;;;;;1999.90;999.90;;;14.10;99.90;;;;;;4807027;29;20070;-71
2023/07/22 06:05:53;;;;;;;1999.90;999.90;;;14.20;99.90;;;;;;4806362;29;20511;-70
2023/07/22 06:08:19;;;;;;;1999.90;999.90;;;14.20;99.90;;;;;;4791159;29;20452;-70
2023/07/22 06:10:45;;;;;;;1999.90;999.90;;;14.20;99.90;;;;;;4805198;29;20066;-71
2023/07/22 06:13:11;;;;;;;1999.90;999.90;;;14.20;99.90;;;;;;4806773;29;20602;-71
2023/07/22 06:15:36;;;;;;;1999.90;999.90;;;14.30;99.90;;;;;;4806253;29;20065;-70
2023/07/22 06:18:02;;;;;;;1999.90;999.90;;;14.30;99.90;;;;;;4806780;29;20106;-70
2023/07/22 06:20:29;;;;;;;1999.90;999.90;;;14.30;99.90;;;;;;4820724;29;20070;-71
2023/07/22 06:22:54;;;;;;;1999.90;999.90;;;14.40;99.90;;;;;;4806490;29;20061;-71
2023/07/22 06:25:20;;;;;;;1999.90;999.90;;;14.40;99.90;;;;;;4806093;29;20141;-70
2023/07/22 06:27:46;;;;;;;1999.90;999.90;;;14.50;99.90;;;;;;4806123;29;20154;-70
2023/07/22 06:30:12;;;;;;;1999.90;999.90;;;14.50;99.90;;;;;;4806150;29;20054;-70
2023/07/22 06:32:38;;;;;;;1999.90;999.90;;;14.50;99.90;;;;;;4805106;29;20066;-70
2023/07/22 06:35:05;;;;;;;1999.90;999.90;;;14.60;99.90;;;;;;4806091;29;20506;-71
2023/07/22 06:37:30;;;;;;;1999.90;999.90;;;14.60;99.90;;;;;;4806025;29;20113;-70
2023/07/22 06:39:56;;;;;;;1999.90;999.90;;;14.70;99.90;;;;;;4805947;29;20047;-70
2023/07/22 06:42:22;;;;;;;1999.90;999.90;;;14.80;99.90;;;;;;4806054;29;20137;-72
2023/07/22 06:44:48;;;;;;;1999.90;999.90;;;14.80;99.90;;;;;;4805882;29;20055;-71
2023/07/22 06:47:13;;;;;;;1999.90;999.90;;;14.90;99.90;;;;;;4805955;29;20133;-71
2023/07/22 06:49:40;;;;;;;1999.90;999.90;;;14.90;99.90;;;;;;4806958;29;20058;-71
2023/07/22 06:52:07;;;;;;;1999.90;999.90;;;15.00;99.90;;;;;;4809303;29;20074;-72
2023/07/22 06:54:34;;;;;;;1999.90;999.90;;;15.10;99.90;;;;;;4823079;29;20046;-71
2023/07/22 06:56:59;;;;;;;1999.90;999.90;;;15.20;99.90;;;;;;4809257;29;20047;-71
2023/07/22 06:59:26;;;;;;;1999.90;999.90;;;15.20;99.90;;;;;;4809151;29;20057;-71
2023/07/22 07:01:52;;;;;;;1999.90;999.90;;;15.30;99.90;;;;;;4809854;29;20070;-71
2023/07/22 07:04:18;;;;;;;1999.90;999.90;;;15.30;99.90;;;;;;4809126;29;20484;-71
2023/07/22 07:06:45;;;;;;;1999.90;999.90;;;15.40;99.90;;;;;;4809194;29;20047;-71
2023/07/22 07:09:11;;;;;;;1999.90;999.90;;;15.50;99.90;;;;;;4808216;29;20445;-71
2023/07/22 07:11:37;;;;;;;1999.90;999.90;;;15.60;99.90;;;;;;4809162;29;20054;-70
2023/07/22 07:14:03;;;;;;;1999.90;999.90;;;15.60;99.90;;;;;;4822899;29;20399;-70
2023/07/22 07:16:31;;;;;;;1999.90;999.90;;;15.70;99.90;;;;;;4809556;29;20047;-70
2023/07/22 07:18:58;;;;;;;1999.90;999.90;;;15.70;99.90;;;;;;4808068;29;20054;-70
2023/07/22 07:21:24;;;;;;;1999.90;999.90;;;15.80;99.90;;;;;;4809013;29;20061;-70
2023/07/22 07:23:51;;;;;;;1999.90;999.90;;;15.90;99.90;;;;;;4822635;29;20046;-70
2023/07/22 07:26:17;;;;;;;1999.90;999.90;;;15.90;99.90;;;;;;4822619;29;20073;-70
2023/07/22 07:28:43;;;;;;;1999.90;999.90;;;16.00;99.90;;;;;;4808694;29;20472;-70
2023/07/22 07:31:09;;;;;;;1999.90;999.90;;;16.00;99.90;;;;;;4808664;29;20051;-70
2023/07/22 07:33:35;;;;;;;1999.90;999.90;;;16.10;99.90;;;;;;4792724;29;20059;-70
2023/07/22 07:36:01;;;;;;;1999.90;999.90;;;16.10;99.90;;;;;;4807622;29;20117;-70
2023/07/22 07:38:28;;;;;;;1999.90;999.90;;;16.10;99.90;;;;;;4808620;29;20158;-70
2023/07/22 07:40:59;;;;;;;1999.90;999.90;;;16.20;99.90;;;;;;4808537;29;20498;-70
2023/07/22 07:43:26;;;;;;;1999.90;999.90;;;16.30;99.90;;;;;;4808371;29;20129;-70
2023/07/22 07:46:20;;;;;;;1999.90;999.90;;;16.30;99.90;;;;;;4808118;29;20043;-71
2023/07/22 07:48:50;;;;;;;1999.90;999.90;;;16.30;99.90;;;;;;4808415;29;20055;-70
2023/07/22 07:51:17;;;;;;;1999.90;999.90;;;16.30;99.90;;;;;;4808791;29;20054;-70
2023/07/22 07:53:44;;;;;;;1999.90;999.90;;;16.30;99.90;;;;;;4807659;29;20061;-71
2023/07/22 07:56:10;;;;;;;1999.90;999.90;;;16.40;99.90;;;;;;4808247;29;20054;-71
2023/07/22 07:58:37;;;;;;;1999.90;999.90;;;16.40;99.90;;;;;;4807268;29;20066;-70
2023/07/22 08:01:04;;;;;;;1999.90;999.90;;;16.40;99.90;;;;;;4807837;29;20063;-71
2023/07/22 08:03:29;;;;;;;1999.90;999.90;;;16.50;99.90;;;;;;4808870;29;20043;-71
2023/07/22 08:05:55;;;;;;;1999.90;999.90;;;16.50;99.90;;;;;;4807289;29;20062;-71
2023/07/22 08:08:21;;;;;;;1999.90;999.90;;;16.50;99.90;;;;;;4807992;29;20055;-71
2023/07/22 08:10:48;;;;;;;1999.90;999.90;;;16.60;99.90;;;;;;4808133;29;20157;-71
2023/07/22 08:13:14;;;;;;;1999.90;999.90;;;16.60;99.90;;;;;;4808094;29;20412;-71
2023/07/22 08:15:41;;;;;;;1999.90;999.90;;;16.70;99.90;;;;;;4808045;29;20484;-71
2023/07/22 08:18:07;;;;;;;1999.90;999.90;;;16.70;99.90;;;;;;4808018;29;20062;-71
2023/07/22 08:20:33;;;;;;;1999.90;999.90;;;16.70;99.90;;;;;;4807928;29;20066;-69
2023/07/22 08:22:59;;;;;;;1999.90;999.90;;;16.70;99.90;;;;;;4807788;29;20396;-70
2023/07/22 08:25:24;;;;;;;1999.90;999.90;;;16.80;99.90;;;;;;4807906;29;20058;-70
2023/07/22 08:27:50;;;;;;;1999.90;999.90;;;16.90;99.90;;;;;;4807115;29;20472;-70
2023/07/22 08:30:16;;;;;;;1999.90;999.90;;;17.00;99.90;;;;;;4808591;29;20141;-71
2023/07/22 08:32:41;;;;;;;1999.90;999.90;;;17.00;99.90;;;;;;4806346;29;20043;-70
2023/07/22 08:35:07;;;;;;;1999.90;999.90;;;17.00;99.90;;;;;;4807747;29;20120;-71
2023/07/22 08:37:33;;;;;;;1999.90;999.90;;;17.10;99.90;;;;;;4807759;29;20063;-71
2023/07/22 08:39:59;;;;;;;1999.90;999.90;;;17.10;99.90;;;;;;4806409;29;20050;-71
2023/07/22 08:42:27;;;;;;;1999.90;999.90;;;17.20;99.90;;;;;;4807574;29;20047;-71
2023/07/22 08:44:58;;;;;;;1999.90;999.90;;;17.30;99.90;;;;;;4807544;29;20073;-70
2023/07/22 08:47:27;;;;;;;1999.90;999.90;;;17.30;99.90;;;;;;4807574;29;20055;-70
2023/07/22 08:49:57;;;;;;;1999.90;999.90;;;17.40;99.90;;;;;;4808261;29;20050;-70
2023/07/22 08:52:23;;;;;;;1999.90;999.90;;;17.40;99.90;;;;;;4807226;29;20484;-71
2023/07/22 08:54:50;;;;;;;1999.90;999.90;;;17.50;99.90;;;;;;4807263;29;20053;-71
2023/07/22 08:57:17;;;;;;;1999.90;999.90;;;17.50;99.90;;;;;;4806950;29;20121;-72
2023/07/22 08:59:44;;;;;;;1999.90;999.90;;;17.50;99.90;;;;;;4806726;29;20385;-71
2023/07/22 09:02:13;;;;;;;1999.90;999.90;;;17.60;99.90;;;;;;4791090;29;20054;-71
2023/07/22 09:04:41;;;;;;;1999.90;999.90;;;17.60;99.90;;;;;;4807094;29;20100;-71
2023/07/22 09:07:08;;;;;;;1999.90;999.90;;;17.70;99.90;;;;;;4805992;29;20054;-70
2023/07/22 09:09:35;;;;;;;1999.90;999.90;;;17.70;99.90;;;;;;4791946;29;20099;-71
2023/07/22 09:12:02;;;;;;;1999.90;999.90;;;17.80;99.90;;;;;;4807101;29;20059;-70
2023/07/22 09:14:30;;;;;;;1999.90;999.90;;;17.80;99.90;;;;;;4806323;29;20047;-71
2023/07/22 09:16:58;;;;;;;1999.90;999.90;;;17.90;99.90;;;;;;4806974;29;20055;-71
2023/07/22 09:19:23;;;;;;;1999.90;999.90;;;18.00;99.90;;;;;;4806983;29;20051;-70
2023/07/22 09:21:49;;;;;;;1999.90;999.90;;;18.00;99.90;;;;;;4807283;29;20058;-70
2023/07/22 09:24:25;;;;;;;1999.90;999.90;;;18.00;99.90;;;;;;4806838;29;20563;-70
2023/07/22 09:26:52;;;;;;;1999.90;999.90;;;18.00;99.90;;;;;;4807234;29;20144;-70
2023/07/22 09:29:18;;;;;;;1999.90;999.90;;;18.00;99.90;;;;;;4807321;29;20054;-70
2023/07/22 09:31:52;;;;;;;1999.90;999.90;;;18.00;99.90;;;;;;4805486;29;20051;-70
2023/07/22 09:34:18;;;;;;;1999.90;999.90;;;18.00;99.90;;;;;;4806725;29;20082;-69
2023/07/22 09:37:00;;;;;;;1999.90;999.90;;;18.00;99.90;;;;;;4806762;29;20089;-70
2023/07/22 09:39:26;;;;;;;1999.90;999.90;;;18.00;99.90;;;;;;4806732;29;20515;-70
2023/07/22 09:41:55;;;;;;;1999.90;999.90;;;18.10;99.90;;;;;;4806663;29;20083;-70
2023/07/22 09:44:22;;;;;;;1999.90;999.90;;;18.00;99.90;;;;;;4806597;29;20047;-70
2023/07/22 09:46:50;;;;;;;1999.90;999.90;;;18.00;99.90;;;;;;4806594;29;20111;-71
2023/07/22 09:49:17;;;;;;;1999.90;999.90;;;18.00;99.90;;;;;;4806564;29;20055;-70
2023/07/22 09:51:44;;;;;;;1999.90;999.90;;;17.90;99.90;;;;;;4806592;29;20061;-70
2023/07/22 09:54:10;;;;;;;1999.90;999.90;;;17.90;99.90;;;;;;4807032;29;20047;-70
2023/07/22 09:56:50;;;;;;;1999.90;999.90;;;17.80;99.90;;;;;;4806534;29;20119;-70
2023/07/22 09:59:19;;;;;;;1999.90;999.90;;;17.70;99.90;;;;;;4807073;29;20058;-70
2023/07/22 10:01:46;;;;;;;1999.90;999.90;;;17.60;99.90;;;;;;4807068;29;20127;-70
2023/07/22 10:04:14;;;;;;;1999.90;999.90;;;17.60;99.90;;;;;;4806405;29;20054;-71
2023/07/22 10:06:42;;;;;;;1999.90;999.90;;;17.60;99.90;;;;;;4806435;29;20058;-70
2023/07/22 10:09:11;;;;;;;1999.90;999.90;;;17.50;99.90;;;;;;4807176;29;20172;-70
2023/07/22 10:11:38;;;;;;;1999.90;999.90;;;17.50;99.90;;;;;;4807141;29;20051;-70
2023/07/22 10:14:05;;;;;;;1999.90;999.90;;;17.50;99.90;;;;;;4806416;29;20130;-71
2023/07/22 10:16:31;;;;;;;1999.90;999.90;;;17.50;99.90;;;;;;4806644;29;20404;-70
2023/07/22 10:18:59;;;;;;;1999.90;999.90;;;17.50;99.90;;;;;;4806340;29;20055;-70
2023/07/22 10:21:26;;;;;;;1999.90;999.90;;;17.60;99.90;;;;;;4807107;29;20073;-70
2023/07/22 10:23:52;;;;;;;1999.90;999.90;;;17.60;99.90;;;;;;4806727;29;20086;-70
2023/07/22 10:26:20;;;;;;;1999.90;999.90;;;17.60;99.90;;;;;;4810650;29;20073;-69
2023/07/22 10:28:47;;;;;;;1999.90;999.90;;;17.60;99.90;;;;;;4808566;29;20065;-70
2023/07/22 10:31:14;;;;;;;1999.90;999.90;;;17.60;99.90;;;;;;4810258;29;20140;-70
2023/07/22 10:33:39;;;;;;;1999.90;999.90;;;17.60;99.90;;;;;;4808615;29;20121;-70
2023/07/22 10:36:13;;;;;;;1999.90;999.90;;;17.60;99.90;;;;;;4809799;29;20142;-70
2023/07/22 10:38:39;;;;;;;1999.90;999.90;;;17.60;99.90;;;;;;4810555;29;20051;-69
2023/07/22 10:41:18;;;;;;;1999.90;999.90;;;17.60;99.90;;;;;;4810116;29;20066;-70
2023/07/22 10:43:55;;;;;;;1999.90;999.90;;;17.60;99.90;;;;;;4809608;29;20138;-71
2023/07/22 10:46:35;;;;;;;1999.90;999.90;;;17.60;99.90;;;;;;4809594;29;20117;-70
2023/07/22 10:49:15;;;;;;;1999.90;999.90;;;17.60;99.90;;;;;;4809560;29;20094;-71
2023/07/22 10:51:47;;;;;;;1999.90;999.90;;;17.60;99.90;;;;;;4810042;29;20054;-71
2023/07/22 10:54:14;;;;;;;1999.90;999.90;;;17.60;99.90;;;;;;4808344;29;20058;-71
2023/07/22 10:56:44;;;;;;;1999.90;999.90;;;17.60;99.90;;;;;;4809218;29;20090;-70
2023/07/22 10:59:11;;;;;;;1999.90;999.90;;;17.70;99.90;;;;;;4809326;29;20059;-69
2023/07/22 11:01:39;;;;;;;1999.90;999.90;;;17.70;99.90;;;;;;4809005;29;20063;-71
2023/07/22 11:04:07;;;;;;;1999.90;999.90;;;17.70;99.90;;;;;;4809773;29;20050;-71
2023/07/22 11:06:34;;;;;;;1999.90;999.90;;;17.70;99.90;;;;;;4809250;29;20058;-71
2023/07/22 11:09:00;;;;;;;1999.90;999.90;;;17.70;99.90;;;;;;4808913;29;20623;-70
2023/07/22 11:11:40;;;;;;;1999.90;999.90;;;17.80;99.90;;;;;;4809147;29;20129;-71
2023/07/22 11:14:13;;;;;;;1999.90;999.90;;;17.70;99.90;;;;;;4808936;29;20055;-71
2023/07/22 11:16:41;;;;;;;1999.90;999.90;;;17.70;99.90;;;;;;4808987;29;20480;-71
2023/07/22 11:19:07;;;;;;;1999.90;999.90;;;17.70;99.90;;;;;;4809467;29;20115;-72
2023/07/22 11:21:32;;;;;;;1999.90;999.90;;;17.60;99.90;;;;;;4809676;29;20464;-72
2023/07/22 11:23:58;;;;;;;1999.90;999.90;;;17.50;99.90;;;;;;4822551;29;20083;-71
2023/07/22 11:26:24;;;;;;;1999.90;999.90;;;17.50;99.90;;;;;;4809705;29;20058;-71
2023/07/22 11:28:52;;;;;;;1999.90;999.90;;;17.40;99.90;;;;;;4807764;29;20109;-71
2023/07/22 11:31:18;;;;;;;1999.90;999.90;;;17.40;99.90;;;;;;4808710;29;20091;-71
2023/07/22 11:33:46;;;;;;;1999.90;999.90;;;17.30;99.90;;;;;;4808820;29;20055;-72
2023/07/22 11:36:13;;;;;;;1999.90;999.90;;;17.30;99.90;;;;;;4822248;29;20051;-71
2023/07/22 11:38:39;;;;;;;1999.90;999.90;;;17.20;99.90;;;;;;4808710;29;20093;-72
2023/07/22 11:41:05;;;;;;;1999.90;999.90;;;17.20;99.90;;;;;;4808649;29;20138;-71
2023/07/22 11:43:31;;;;;;;1999.90;999.90;;;17.20;99.90;;;;;;4809086;29;20046;-72
2023/07/22 11:45:57;;;;;;;1999.90;999.90;;;17.20;99.90;;;;;;4807346;29;20408;-71
2023/07/22 11:48:23;;;;;;;1999.90;999.90;;;17.20;99.90;;;;;;4808525;29;20047;-72
2023/07/22 11:50:49;;;;;;;1999.90;999.90;;;17.10;99.90;;;;;;4808401;29;20135;-71
2023/07/22 11:53:15;;;;;;;1999.90;999.90;;;17.10;99.90;;;;;;4808130;29;20150;-72
2023/07/22 11:55:41;;;;;;;1999.90;999.90;;;17.10;99.90;;;;;;4808211;29;20050;-71
2023/07/22 11:58:07;;;;;;;1999.90;999.90;;;17.10;99.90;;;;;;4808680;29;20121;-71